createdAt,value
2018-11-07T14:24:29.246Z,63.89
2018-11-07T14:25:29.218Z,63.86
2018-11-07T14:26:29.235Z,64.07
2018-11-07T14:27:29.217Z,63.79
2018-11-07T14:28:29.235Z,63.76
2018-11-07T14:29:29.195Z,62.75
2018-11-07T14:30:29.185Z,62.45
2018-11-07T14:31:29.186Z,62.45
2018-11-07T14:32:29.161Z,62.24
2018-11-07T14:33:29.144Z,62.24
2018-11-07T14:34:29.142Z,62.54
2018-11-07T14:35:29.127Z,62.04
2018-11-07T14:36:29.122Z,61.94
2018-11-07T14:37:29.093Z,62.45
2018-11-07T14:38:29.142Z,61.94
2018-11-07T14:39:29.074Z,62.04
2018-11-07T14:40:29.059Z,61.74
2018-11-07T14:41:29.045Z,62.45
2018-11-07T14:42:29.065Z,61.76
2018-11-07T14:43:29.023Z,62.65
2018-11-07T14:44:29.019Z,62.68
2018-11-07T14:45:29.025Z,61.76
2018-11-07T14:46:29.030Z,62.57
2018-11-07T14:47:29.139Z,62.57
2018-11-07T14:48:29.004Z,61.94
2018-11-07T14:49:28.958Z,62.04
2018-11-07T14:50:28.946Z,61.23
2018-11-07T14:51:28.943Z,62.57
2018-11-07T14:52:28.965Z,62.78
2018-11-07T14:53:28.947Z,62.98
2018-11-07T14:54:29.016Z,63.69
2018-11-07T14:55:28.893Z,62.57
2018-11-07T14:56:28.881Z,62.10
2018-11-07T14:57:28.894Z,62.57
2018-11-07T14:58:28.886Z,64.50
2018-11-07T14:59:28.878Z,62.30
2018-11-07T15:00:28.853Z,62.71
2018-11-07T15:01:28.908Z,62.51
2018-11-07T15:03:29.972Z,63.72
2018-11-07T15:04:28.795Z,63.42
2018-11-07T15:05:28.805Z,63.32
2018-11-07T15:06:28.775Z,62.51
2018-11-07T15:07:28.770Z,63.62
2018-11-07T15:08:28.937Z,63.82
2018-11-07T15:09:28.779Z,63.82
2018-11-07T15:10:28.729Z,63.55
2018-11-07T15:11:28.830Z,63.95
2018-11-07T15:12:28.706Z,64.67
2018-11-07T15:13:28.712Z,63.95
2018-11-07T15:14:28.762Z,64.26
2018-11-07T15:15:28.671Z,63.75
2018-11-07T15:16:28.662Z,64.56
2018-11-07T15:17:28.664Z,65.17
2018-11-07T15:18:28.659Z,64.76
2018-11-07T15:19:28.682Z,64.67
2018-11-07T15:20:28.622Z,65.30
2018-11-07T15:21:28.608Z,64.59
2018-11-07T15:22:28.641Z,64.36
2018-11-07T15:23:28.600Z,65.71
2018-11-07T15:24:28.582Z,64.70
2018-11-07T15:25:28.585Z,64.59
2018-11-07T15:26:28.561Z,64.49
2018-11-07T15:27:28.540Z,64.90
2018-11-07T15:28:28.561Z,65.51
2018-11-07T15:29:28.529Z,64.70
2018-11-07T15:30:28.544Z,64.76
2018-11-07T15:31:28.495Z,64.59
2018-11-07T15:32:28.493Z,65.71
2018-11-07T15:33:28.474Z,64.70
2018-11-07T15:34:28.480Z,64.76
2018-11-07T15:35:28.466Z,64.36
2018-11-07T15:36:28.472Z,64.67
2018-11-07T15:37:28.442Z,64.97
2018-11-07T15:38:28.459Z,65.81
2018-11-07T15:39:28.406Z,65.51
2018-11-07T15:40:28.414Z,65.10
2018-11-07T15:41:28.412Z,65.41
2018-11-07T15:42:28.384Z,65.30
2018-11-07T15:43:28.488Z,65.20
2018-11-07T15:44:28.352Z,65.30
2018-11-07T15:45:28.359Z,66.12
2018-11-07T15:46:28.333Z,65.81
2018-11-07T15:47:28.365Z,66.12
2018-11-07T15:48:28.326Z,66.72
2018-11-07T15:49:28.298Z,67.84
2018-11-07T15:50:28.336Z,67.54
2018-11-07T15:51:28.302Z,69.20
2018-11-07T15:52:28.273Z,70.01
2018-11-07T15:53:28.253Z,70.42
2018-11-07T15:54:28.262Z,69.20
2018-11-07T15:55:28.242Z,69.94
2018-11-07T15:56:28.242Z,70.04
2018-11-07T15:57:28.210Z,71.77
2018-11-07T15:58:28.821Z,70.86
2018-11-07T15:59:28.292Z,72.28
2018-11-07T16:00:49.179Z,72.58
2018-11-07T16:01:28.267Z,72.17
2018-11-07T16:02:28.179Z,73.50
2018-11-07T16:03:28.147Z,74.24
2018-11-07T16:04:28.275Z,75.57
2018-11-07T16:05:29.640Z,76.01
2018-11-07T16:06:28.332Z,76.31
2018-11-07T16:07:28.330Z,77.17
2018-11-07T16:09:29.899Z,78.08
2018-11-07T16:10:28.207Z,79.95
2018-11-07T16:11:29.368Z,80.05
2018-11-07T16:12:28.057Z,80.26
2018-11-07T16:13:28.085Z,80.66
2018-11-07T16:14:28.026Z,82.43
2018-11-07T16:15:28.062Z,82.84
2018-11-07T16:16:27.995Z,82.03
2018-11-07T16:17:28.011Z,83.49
2018-11-07T16:18:27.974Z,82.57
2018-11-07T16:19:27.961Z,83.59
2018-11-07T16:20:27.984Z,83.90
2018-11-07T16:21:27.935Z,84.92
2018-11-07T16:22:27.998Z,83.94
2018-11-07T16:23:27.998Z,84.55
2018-11-07T16:24:27.916Z,85.06
2018-11-07T16:25:27.906Z,84.45
2018-11-07T16:26:27.899Z,84.45
2018-11-07T16:27:27.893Z,85.77
2018-11-07T16:28:27.934Z,86.08
2018-11-07T16:29:27.844Z,86.29
2018-11-07T16:30:27.835Z,86.18
2018-11-07T16:31:27.866Z,86.18
2018-11-07T16:32:27.823Z,86.49
2018-11-07T16:33:27.832Z,86.94
2018-11-07T16:34:27.799Z,86.39
2018-11-07T16:35:27.785Z,86.43
2018-11-07T16:36:27.795Z,86.59
2018-11-07T16:37:27.760Z,86.53
2018-11-07T16:38:27.784Z,86.43
2018-11-07T16:39:27.777Z,86.83
2018-11-07T16:40:27.772Z,87.04
2018-11-07T16:41:27.826Z,87.00
2018-11-07T16:42:27.710Z,86.94
2018-11-07T16:43:27.692Z,86.53
2018-11-07T16:44:27.709Z,87.24
2018-11-07T16:45:27.666Z,86.73
2018-11-07T16:46:27.686Z,87.96
2018-11-07T16:47:27.710Z,87.65
2018-11-07T16:48:27.865Z,87.85
2018-11-07T16:49:27.690Z,87.85
2018-11-07T16:50:27.610Z,87.35
2018-11-07T16:51:27.601Z,87.65
2018-11-07T16:53:28.949Z,87.24
2018-11-07T16:54:27.597Z,87.76
2018-11-07T16:55:27.562Z,87.59
2018-11-07T16:56:27.782Z,87.96
2018-11-07T16:57:27.536Z,88.61
2018-11-07T16:58:27.530Z,88.51
2018-11-07T16:59:27.544Z,88.51
2018-11-07T17:00:27.508Z,88.10
2018-11-07T17:01:27.494Z,88.31
2018-11-07T17:02:27.496Z,87.90
2018-11-07T17:03:27.472Z,88.71
2018-11-07T17:04:27.654Z,88.71
2018-11-07T17:05:27.451Z,88.51
2018-11-07T17:06:27.437Z,88.00
2018-11-07T17:07:27.434Z,88.61
2018-11-07T17:09:28.586Z,87.90
2018-11-07T17:10:27.435Z,88.10
2018-11-07T17:11:27.387Z,88.10
2018-11-07T17:12:27.398Z,88.41
2018-11-07T17:13:27.369Z,88.10
2018-11-07T17:14:27.357Z,88.10
2018-11-07T17:16:28.544Z,87.70
2018-11-07T17:17:27.343Z,87.29
2018-11-07T17:18:27.308Z,87.90
2018-11-07T17:19:27.298Z,88.00
2018-11-07T17:20:27.317Z,88.31
2018-11-07T17:21:27.301Z,88.20
2018-11-07T17:22:27.300Z,88.20
2018-11-07T17:23:48.320Z,87.49
2018-11-07T17:24:27.484Z,87.49
2018-11-07T17:26:28.438Z,87.59
2018-11-07T17:27:27.214Z,88.55
2018-11-07T17:28:27.197Z,87.94
2018-11-07T17:29:27.191Z,88.04
2018-11-07T17:31:28.294Z,88.55
2018-11-07T17:32:27.195Z,87.79
2018-11-07T17:33:27.142Z,88.20
2018-11-07T17:34:27.143Z,88.51
2018-11-07T17:35:27.132Z,88.85
2018-11-07T17:36:27.137Z,88.51
2018-11-07T17:37:27.101Z,88.31
2018-11-07T17:38:27.121Z,88.10
2018-11-07T17:39:27.088Z,88.55
2018-11-07T17:40:27.070Z,88.31
2018-11-07T17:41:27.102Z,88.82
2018-11-07T17:42:27.065Z,88.20
2018-11-07T17:43:27.055Z,88.24
2018-11-07T17:44:27.034Z,88.55
2018-11-07T17:45:27.040Z,88.10
2018-11-07T17:46:27.029Z,88.14
2018-11-07T17:47:27.020Z,88.10
2018-11-07T17:48:27.049Z,88.20
2018-11-07T17:49:27.004Z,88.35
2018-11-07T17:50:26.981Z,88.20
2018-11-07T17:51:27.011Z,88.31
2018-11-07T17:52:26.967Z,88.92
2018-11-07T17:53:26.946Z,88.65
2018-11-07T17:54:26.919Z,87.90
2018-11-07T17:55:26.952Z,88.20
2018-11-07T17:56:26.941Z,88.51
2018-11-07T17:57:26.910Z,88.61
2018-11-07T17:58:26.885Z,87.59
2018-11-07T17:59:26.866Z,87.49
2018-11-07T18:00:26.853Z,87.29
2018-11-07T18:01:26.848Z,87.59
2018-11-07T18:02:26.854Z,88.51
2018-11-07T18:03:26.818Z,88.41
2018-11-07T18:04:26.841Z,88.31
2018-11-07T18:05:26.801Z,88.41
2018-11-07T18:06:26.788Z,88.41
2018-11-07T18:07:26.815Z,87.70
2018-11-07T18:08:26.819Z,88.10
2018-11-07T18:10:27.901Z,88.61
2018-11-07T18:12:27.898Z,88.55
2018-11-07T18:13:26.743Z,88.45
2018-11-07T18:15:27.845Z,89.47
2018-11-07T18:16:26.688Z,89.17
2018-11-07T18:17:26.733Z,89.37
2018-11-07T18:18:26.708Z,89.17
2018-11-07T18:19:26.688Z,89.17
2018-11-07T18:20:26.654Z,89.47
2018-11-07T18:21:26.627Z,89.26
2018-11-07T18:22:26.621Z,89.37
2018-11-07T18:23:26.638Z,89.26
2018-11-07T18:24:26.600Z,89.17
2018-11-07T18:25:26.586Z,89.41
2018-11-07T18:26:26.584Z,89.51
2018-11-07T18:27:26.673Z,89.41
2018-11-07T18:28:26.562Z,89.61
2018-11-07T18:29:26.540Z,89.51
2018-11-07T18:30:26.565Z,89.92
2018-11-07T18:31:26.518Z,89.82
2018-11-07T18:32:26.513Z,89.72
2018-11-07T18:33:26.516Z,89.92
2018-11-07T18:34:26.513Z,89.92
2018-11-07T18:35:26.481Z,89.72
2018-11-07T18:36:26.464Z,90.02
2018-11-07T18:37:26.453Z,90.12
2018-11-07T18:38:26.457Z,89.92
2018-11-07T18:39:26.456Z,90.02
2018-11-07T18:40:26.418Z,89.20
2018-11-07T18:41:26.407Z,89.51
2018-11-07T18:42:26.404Z,89.82
2018-11-07T18:43:26.395Z,89.41
2018-11-07T18:45:27.551Z,89.41
2018-11-07T18:46:26.353Z,88.39
2018-11-07T18:47:26.345Z,88.14
2018-11-07T18:48:26.338Z,88.14
2018-11-07T18:50:27.542Z,88.08
2018-11-07T18:51:26.297Z,87.84
2018-11-07T18:52:26.302Z,88.14
2018-11-07T18:53:26.302Z,87.32
2018-11-07T18:54:26.275Z,86.41
2018-11-07T18:55:26.285Z,86.51
2018-11-07T18:56:26.243Z,86.91
2018-11-07T18:57:26.239Z,86.71
2018-11-07T18:58:26.278Z,86.30
2018-11-07T18:59:26.216Z,85.86
2018-11-07T19:00:26.248Z,86.61
2018-11-07T19:01:26.190Z,86.10
2018-11-07T19:02:26.184Z,86.41
2018-11-07T19:03:26.173Z,86.00
2018-11-07T19:04:26.340Z,84.94
2018-11-07T19:05:26.197Z,86.06
2018-11-07T19:06:26.214Z,85.24
2018-11-07T19:07:26.150Z,85.24
2018-11-07T19:08:26.120Z,85.14
2018-11-07T19:09:26.107Z,85.45
2018-11-07T19:10:26.093Z,85.04
2018-11-07T19:11:26.131Z,84.42
2018-11-07T19:12:26.075Z,84.63
2018-11-07T19:13:26.083Z,84.63
2018-11-07T19:14:26.051Z,84.74
2018-11-07T19:15:26.036Z,84.53
2018-11-07T19:16:26.052Z,84.18
2018-11-07T19:17:26.025Z,84.42
2018-11-07T19:18:26.020Z,84.63
2018-11-07T19:19:25.996Z,84.12
2018-11-07T19:20:26.048Z,83.81
2018-11-07T19:21:26.006Z,84.18
2018-11-07T19:22:25.962Z,84.42
2018-11-07T19:23:25.976Z,84.42
2018-11-07T19:24:25.967Z,84.63
2018-11-07T19:25:25.946Z,84.12
2018-11-07T19:26:26.009Z,84.12
2018-11-07T19:27:25.967Z,84.63
2018-11-07T19:28:25.909Z,84.63
2018-11-07T19:29:25.890Z,84.74
2018-11-07T19:30:25.891Z,85.14
2018-11-07T19:31:25.862Z,84.83
2018-11-07T19:32:25.874Z,84.63
2018-11-07T19:33:25.839Z,84.63
2018-11-07T19:34:25.855Z,84.63
2018-11-07T19:35:25.828Z,84.33
2018-11-07T19:36:25.830Z,84.53
2018-11-07T19:37:25.833Z,84.63
2018-11-07T19:38:25.792Z,83.78
2018-11-07T19:39:25.788Z,84.08
2018-11-07T19:40:25.925Z,84.28
2018-11-07T19:41:25.763Z,83.78
2018-11-07T19:43:26.906Z,84.18
2018-11-07T19:44:25.745Z,84.28
2018-11-07T19:45:25.713Z,84.39
2018-11-07T19:46:25.703Z,84.18
2018-11-07T19:47:25.695Z,84.28
2018-11-07T19:48:25.700Z,84.18
2018-11-07T19:49:25.688Z,84.12
2018-11-07T19:50:25.666Z,84.22
2018-11-07T19:51:25.651Z,83.87
2018-11-07T19:52:25.673Z,84.28
2018-11-07T19:53:25.680Z,84.22
2018-11-07T19:54:25.664Z,84.42
2018-11-07T19:55:25.612Z,84.18
2018-11-07T19:56:25.608Z,84.28
2018-11-07T19:57:25.630Z,84.12
2018-11-07T19:58:25.586Z,84.42
2018-11-07T19:59:25.567Z,84.22
2018-11-07T20:00:25.577Z,84.53
2018-11-07T20:01:25.550Z,84.53
2018-11-07T20:02:25.578Z,84.01
2018-11-07T20:03:25.526Z,84.42
2018-11-07T20:04:25.517Z,84.74
2018-11-07T20:05:25.501Z,84.74
2018-11-07T20:06:25.497Z,84.63
2018-11-07T20:07:25.480Z,84.74
2018-11-07T20:08:25.525Z,84.74
2018-11-07T20:09:25.478Z,84.63
2018-11-07T20:10:25.546Z,84.42
2018-11-07T20:11:25.481Z,84.22
2018-11-07T20:12:25.432Z,84.33
2018-11-07T20:13:25.451Z,84.90
2018-11-07T20:14:25.398Z,84.42
2018-11-07T20:15:25.396Z,84.12
2018-11-07T20:16:25.483Z,83.98
2018-11-07T20:17:25.382Z,83.87
2018-11-07T20:18:25.531Z,83.87
2018-11-07T20:19:25.359Z,83.87
2018-11-07T20:20:25.337Z,84.08
2018-11-07T20:21:25.318Z,83.47
2018-11-07T20:22:25.315Z,83.47
2018-11-07T20:23:25.472Z,83.87
2018-11-07T20:24:25.305Z,83.98
2018-11-07T20:25:25.300Z,83.67
2018-11-07T20:26:25.272Z,83.47
2018-11-07T20:27:25.262Z,83.57
2018-11-07T20:29:26.458Z,83.33
2018-11-07T20:30:25.241Z,83.47
2018-11-07T20:31:25.232Z,83.98
2018-11-07T20:32:25.204Z,83.57
2018-11-07T20:33:25.218Z,83.98
2018-11-07T20:34:25.211Z,84.18
2018-11-07T20:35:25.210Z,84.34
2018-11-07T20:36:25.167Z,83.87
2018-11-07T20:37:25.157Z,84.08
2018-11-07T20:38:25.159Z,83.98
2018-11-07T20:39:25.134Z,83.87
2018-11-07T20:40:25.112Z,84.08
2018-11-07T20:41:25.161Z,83.37
2018-11-07T20:42:25.110Z,83.37
2018-11-07T20:44:26.230Z,83.57
2018-11-07T20:45:25.146Z,83.47
2018-11-07T20:46:25.066Z,83.57
2018-11-07T20:47:25.059Z,83.57
2018-11-07T20:48:25.030Z,83.57
2018-11-07T20:49:25.093Z,83.47
2018-11-07T20:50:25.018Z,84.08
2018-11-07T20:51:25.077Z,83.57
2018-11-07T20:52:24.985Z,83.78
2018-11-07T20:53:24.979Z,83.57
2018-11-07T20:54:24.966Z,83.87
2018-11-07T20:55:24.976Z,83.98
2018-11-07T20:56:24.951Z,83.98
2018-11-07T20:57:24.978Z,84.08
2018-11-07T20:58:24.924Z,83.92
2018-11-07T20:59:24.910Z,83.81
2018-11-07T21:00:24.917Z,84.42
2018-11-07T21:01:24.890Z,84.33
2018-11-07T21:02:24.891Z,84.42
2018-11-07T21:03:24.887Z,84.28
2018-11-07T21:04:24.863Z,84.22
2018-11-07T21:05:24.868Z,84.42
2018-11-07T21:06:24.886Z,84.42
2018-11-07T21:07:24.824Z,84.01
2018-11-07T21:08:24.829Z,83.81
2018-11-07T21:09:24.837Z,84.12
2018-11-07T21:10:24.832Z,84.22
2018-11-07T21:11:24.780Z,84.22
2018-11-07T21:12:24.770Z,84.33
2018-11-07T21:13:24.765Z,84.12
2018-11-07T21:14:24.765Z,84.08
2018-11-07T21:15:24.777Z,84.28
2018-11-07T21:16:24.739Z,84.33
2018-11-07T21:17:24.715Z,83.92
2018-11-07T21:18:24.724Z,83.92
2018-11-07T21:19:24.703Z,84.42
2018-11-07T21:20:24.718Z,84.53
2018-11-07T21:21:24.707Z,84.22
2018-11-07T21:22:24.682Z,84.57
2018-11-07T21:23:24.677Z,83.92
2018-11-07T21:24:24.654Z,84.22
2018-11-07T21:25:24.642Z,84.12
2018-11-07T21:26:24.649Z,84.01
2018-11-07T21:27:24.613Z,84.01
2018-11-07T21:28:24.615Z,84.12
2018-11-07T21:29:24.590Z,83.92
2018-11-07T21:30:24.604Z,84.01
2018-11-07T21:31:24.584Z,83.92
2018-11-07T21:32:24.555Z,83.51
2018-11-07T21:33:24.550Z,84.01
2018-11-07T21:34:24.547Z,84.01
2018-11-07T21:35:24.522Z,83.95
2018-11-07T21:36:24.528Z,84.12
2018-11-07T21:37:24.502Z,83.71
2018-11-07T21:38:24.487Z,84.12
2018-11-07T21:39:24.475Z,84.01
2018-11-07T21:40:24.481Z,84.01
2018-11-07T21:41:24.491Z,84.22
2018-11-07T21:42:24.475Z,84.36
2018-11-07T21:43:24.441Z,84.33
2018-11-07T21:44:24.423Z,84.22
2018-11-07T21:45:24.413Z,84.53
2018-11-07T21:46:24.426Z,83.95
2018-11-07T21:47:24.398Z,84.26
2018-11-07T21:48:24.408Z,84.67
2018-11-07T21:49:24.384Z,84.67
2018-11-07T21:50:24.365Z,84.77
2018-11-07T21:51:24.349Z,84.53
2018-11-07T21:52:24.334Z,84.77
2018-11-07T21:53:24.358Z,84.67
2018-11-07T21:54:24.320Z,84.26
2018-11-07T21:55:24.316Z,84.57
2018-11-07T21:56:24.298Z,84.67
2018-11-07T21:57:24.283Z,84.67
2018-11-07T21:58:24.309Z,84.57
2018-11-07T21:59:24.262Z,84.67
2018-11-07T22:00:24.256Z,84.67
2018-11-07T22:01:24.250Z,84.67
2018-11-07T22:02:24.229Z,84.88
2018-11-07T22:03:24.271Z,85.08
2018-11-07T22:04:24.226Z,85.49
2018-11-07T22:05:24.202Z,85.38
2018-11-07T22:06:24.201Z,85.38
2018-11-07T22:07:24.182Z,85.59
2018-11-07T22:08:24.186Z,85.59
2018-11-07T22:09:24.165Z,85.08
2018-11-07T22:10:24.144Z,85.59
2018-11-07T22:11:24.133Z,85.08
2018-11-07T22:12:24.118Z,85.08
2018-11-07T22:13:24.161Z,85.18
2018-11-07T22:14:24.120Z,85.28
2018-11-07T22:15:24.087Z,84.57
2018-11-07T22:16:24.109Z,84.67
2018-11-07T22:17:24.079Z,84.57
2018-11-07T22:18:24.062Z,84.77
2018-11-07T22:19:24.082Z,84.63
2018-11-07T22:20:24.034Z,84.36
2018-11-07T22:21:24.019Z,84.47
2018-11-07T22:22:24.014Z,84.67
2018-11-07T22:23:23.999Z,84.67
2018-11-07T22:24:24.107Z,83.85
2018-11-07T22:25:23.994Z,84.36
2018-11-07T22:26:23.970Z,84.36
2018-11-07T22:27:23.963Z,84.47
2018-11-07T22:28:23.951Z,84.36
2018-11-07T22:29:23.995Z,83.95
2018-11-07T22:30:23.967Z,84.26
2018-11-07T22:31:23.965Z,84.57
2018-11-07T22:32:23.903Z,84.77
2018-11-07T22:33:23.902Z,84.88
2018-11-07T22:34:23.887Z,84.88
2018-11-07T22:35:23.910Z,84.57
2018-11-07T22:36:23.857Z,84.67
2018-11-07T22:37:23.849Z,84.67
2018-11-07T22:38:23.839Z,84.47
2018-11-07T22:39:23.847Z,84.88
2018-11-07T22:40:23.815Z,84.61
2018-11-07T22:41:23.877Z,84.67
2018-11-07T22:42:23.795Z,84.36
2018-11-07T22:43:23.783Z,84.81
2018-11-07T22:44:23.780Z,84.47
2018-11-07T22:45:23.803Z,84.71
2018-11-07T22:46:23.751Z,84.67
2018-11-07T22:47:23.739Z,84.57
2018-11-07T22:48:23.730Z,83.85
2018-11-07T22:49:23.721Z,83.85
2018-11-07T22:50:23.710Z,84.36
2018-11-07T22:51:23.747Z,84.67
2018-11-07T22:52:23.708Z,84.26
2018-11-07T22:53:23.677Z,83.54
2018-11-07T22:54:23.668Z,83.75
2018-11-07T22:55:23.655Z,83.24
2018-11-07T22:56:23.663Z,83.65
2018-11-07T22:57:23.636Z,83.34
2018-11-07T22:58:23.635Z,83.14
2018-11-07T22:59:23.615Z,83.65
2018-11-07T23:00:23.624Z,83.34
2018-11-07T23:01:23.610Z,83.75
2018-11-07T23:02:23.579Z,83.65
2018-11-07T23:03:23.568Z,84.16
2018-11-07T23:04:23.565Z,84.20
2018-11-07T23:05:23.551Z,83.59
2018-11-07T23:06:23.543Z,84.20
2018-11-07T23:07:23.554Z,83.89
2018-11-07T23:08:23.519Z,84.00
2018-11-07T23:09:23.500Z,84.00
2018-11-07T23:10:23.494Z,84.09
2018-11-07T23:11:23.481Z,84.09
2018-11-07T23:12:23.521Z,84.20
2018-11-07T23:13:23.472Z,84.09
2018-11-07T23:14:23.449Z,84.20
2018-11-07T23:15:23.438Z,84.30
2018-11-07T23:16:23.425Z,84.41
2018-11-07T23:17:23.458Z,84.41
2018-11-07T23:18:23.407Z,84.50
2018-11-07T23:19:23.440Z,84.41
2018-11-07T23:20:23.385Z,84.20
2018-11-07T23:21:23.380Z,84.34
2018-11-07T23:22:23.391Z,84.34
2018-11-07T23:23:23.351Z,84.34
2018-11-07T23:24:23.338Z,84.44
2018-11-07T23:25:23.354Z,84.85
2018-11-07T23:26:23.326Z,84.75
2018-11-07T23:27:23.322Z,84.95
2018-11-07T23:28:23.295Z,84.95
2018-11-07T23:29:23.284Z,84.75
2018-11-07T23:30:23.269Z,84.65
2018-11-07T23:31:23.266Z,84.95
2018-11-07T23:32:23.267Z,84.65
2018-11-07T23:33:23.248Z,84.75
2018-11-07T23:34:23.234Z,84.30
2018-11-07T23:35:23.242Z,84.65
2018-11-07T23:36:23.208Z,84.65
2018-11-07T23:37:23.219Z,84.71
2018-11-07T23:38:23.193Z,84.34
2018-11-07T23:39:23.173Z,84.09
2018-11-07T23:40:23.171Z,84.55
2018-11-07T23:41:23.161Z,84.41
2018-11-07T23:42:23.165Z,84.41
2018-11-07T23:43:23.193Z,84.50
2018-11-07T23:44:23.144Z,84.30
2018-11-07T23:45:23.169Z,84.09
2018-11-07T23:46:23.108Z,84.50
2018-11-07T23:47:23.126Z,84.30
2018-11-07T23:48:23.110Z,84.30
2018-11-07T23:49:23.070Z,84.20
2018-11-07T23:50:23.073Z,84.50
2018-11-07T23:51:23.047Z,84.34
2018-11-07T23:52:23.033Z,84.24
2018-11-07T23:53:23.049Z,84.14
2018-11-07T23:54:23.025Z,84.34
2018-11-07T23:55:22.999Z,84.44
2018-11-07T23:56:22.988Z,84.44
2018-11-07T23:57:23.041Z,84.34
2018-11-07T23:58:22.980Z,84.44
2018-11-07T23:59:22.974Z,84.58
